createdAt,value
2022-11-27T00:00:03.741Z,7.70
2022-11-27T00:01:03.741Z,7.69
2022-11-27T00:02:03.755Z,7.69
2022-11-27T00:03:03.814Z,7.67
2022-11-27T00:04:03.788Z,7.66
2022-11-27T00:05:03.697Z,7.63
2022-11-27T00:06:03.699Z,7.66
2022-11-27T00:07:03.689Z,7.63
2022-11-27T00:08:03.649Z,7.60
2022-11-27T00:09:03.627Z,7.58
2022-11-27T00:10:03.617Z,7.57
2022-11-27T00:11:03.616Z,7.58
2022-11-27T00:12:03.589Z,7.58
2022-11-27T00:13:03.585Z,7.58
2022-11-27T00:14:03.560Z,7.57
2022-11-27T00:15:03.575Z,7.57
2022-11-27T00:16:03.712Z,7.57
2022-11-27T00:17:03.527Z,7.57
2022-11-27T00:18:03.510Z,7.58
2022-11-27T00:19:03.504Z,7.57
2022-11-27T00:20:03.676Z,7.57
2022-11-27T00:21:03.474Z,7.55
2022-11-27T00:22:03.476Z,7.54
2022-11-27T00:23:03.462Z,7.52
2022-11-27T00:24:03.464Z,7.52
2022-11-27T00:25:03.434Z,7.52
2022-11-27T00:26:03.413Z,7.52
2022-11-27T00:27:03.426Z,7.51
2022-11-27T00:28:03.388Z,7.54
2022-11-27T00:29:03.385Z,7.55
2022-11-27T00:30:03.361Z,7.52
2022-11-27T00:31:03.393Z,7.55
2022-11-27T00:32:03.373Z,7.54
2022-11-27T00:33:03.340Z,7.55
2022-11-27T00:34:03.302Z,7.52
2022-11-27T00:35:03.302Z,7.54
2022-11-27T00:36:03.791Z,7.52
2022-11-27T00:37:03.289Z,7.54
2022-11-27T00:38:03.252Z,7.54
2022-11-27T00:39:03.255Z,7.52
2022-11-27T00:40:03.237Z,7.54
2022-11-27T00:41:03.230Z,7.54
2022-11-27T00:42:03.214Z,7.52
2022-11-27T00:43:03.201Z,7.55
2022-11-27T00:44:03.260Z,7.54
2022-11-27T00:45:03.170Z,7.54
2022-11-27T00:46:03.219Z,7.54
2022-11-27T00:47:03.333Z,7.54
2022-11-27T00:48:03.118Z,7.54
2022-11-27T00:49:03.117Z,7.55
2022-11-27T00:50:03.114Z,7.57
2022-11-27T00:51:03.100Z,7.58
2022-11-27T00:52:03.094Z,7.57
2022-11-27T00:53:03.077Z,7.57
2022-11-27T00:54:03.059Z,7.55
2022-11-27T00:55:03.073Z,7.58
2022-11-27T00:56:03.038Z,7.57
2022-11-27T00:57:04.803Z,7.57
2022-11-27T00:58:03.047Z,7.57
2022-11-27T00:59:03.017Z,7.58
2022-11-27T01:00:02.970Z,7.60
2022-11-27T01:01:02.975Z,7.58
2022-11-27T01:02:03.024Z,7.58
2022-11-27T01:03:03.120Z,7.58
2022-11-27T01:04:02.965Z,7.58
2022-11-27T01:05:02.931Z,7.58
2022-11-27T01:06:02.895Z,7.60
2022-11-27T01:07:02.896Z,7.58
2022-11-27T01:08:02.876Z,7.58
2022-11-27T01:09:03.542Z,7.57
2022-11-27T01:10:02.841Z,7.58
2022-11-27T01:11:03.612Z,7.57
2022-11-27T01:12:02.826Z,7.58
2022-11-27T01:13:03.701Z,7.60
2022-11-27T01:14:02.813Z,7.58
2022-11-27T01:15:02.810Z,7.60
2022-11-27T01:16:02.859Z,7.60
2022-11-27T01:17:02.770Z,7.62
2022-11-27T01:18:02.750Z,7.60
2022-11-27T01:19:02.766Z,7.58
2022-11-27T01:20:02.722Z,7.58
2022-11-27T01:21:02.735Z,7.62
2022-11-27T01:22:02.702Z,7.60
2022-11-27T01:23:02.693Z,7.62
2022-11-27T01:24:02.679Z,7.62
2022-11-27T01:25:02.658Z,7.62
2022-11-27T01:26:02.649Z,7.62
2022-11-27T01:27:02.641Z,7.60
2022-11-27T01:28:02.619Z,7.57
2022-11-27T01:29:02.633Z,7.57
2022-11-27T01:30:02.593Z,7.55
2022-11-27T01:31:02.668Z,7.55
2022-11-27T01:32:02.555Z,7.57
2022-11-27T01:33:02.605Z,7.57
2022-11-27T01:34:02.539Z,7.58
2022-11-27T01:35:02.531Z,7.57
2022-11-27T01:36:02.506Z,7.58
2022-11-27T01:37:02.520Z,7.58
2022-11-27T01:38:02.487Z,7.57
2022-11-27T01:39:02.474Z,7.57
2022-11-27T01:40:02.740Z,7.58
2022-11-27T01:41:02.441Z,7.57
2022-11-27T01:42:02.426Z,7.55
2022-11-27T01:43:02.418Z,7.57
2022-11-27T01:44:02.446Z,7.58
2022-11-27T01:45:02.406Z,7.57
2022-11-27T01:46:02.409Z,7.57
2022-11-27T01:47:02.396Z,7.57
2022-11-27T01:48:02.353Z,7.58
2022-11-27T01:49:02.363Z,7.60
2022-11-27T01:50:02.335Z,7.62
2022-11-27T01:51:02.325Z,7.60
2022-11-27T01:52:02.301Z,7.62
2022-11-27T01:53:02.304Z,7.62
2022-11-27T01:54:02.278Z,7.58
2022-11-27T01:55:02.284Z,7.58
2022-11-27T01:56:02.260Z,7.58
2022-11-27T01:57:02.244Z,7.57
2022-11-27T01:58:02.222Z,7.60
2022-11-27T01:59:02.224Z,7.60
2022-11-27T02:00:02.199Z,7.62
2022-11-27T02:01:02.191Z,7.58
2022-11-27T02:02:02.231Z,7.58
2022-11-27T02:03:02.220Z,7.58
2022-11-27T02:04:02.156Z,7.57
2022-11-27T02:05:02.142Z,7.55
2022-11-27T02:06:02.131Z,7.54
2022-11-27T02:07:02.121Z,7.54
2022-11-27T02:08:02.101Z,7.52
2022-11-27T02:09:02.089Z,7.52
2022-11-27T02:10:02.101Z,7.51
2022-11-27T02:11:02.060Z,7.51
2022-11-27T02:12:02.038Z,7.48
2022-11-27T02:13:02.050Z,7.47
2022-11-27T02:14:02.012Z,7.45
2022-11-27T02:15:02.010Z,7.44
2022-11-27T02:16:02.129Z,7.42
2022-11-27T02:17:01.993Z,7.42
2022-11-27T02:18:01.961Z,7.39
2022-11-27T02:19:01.999Z,7.37
2022-11-27T02:20:01.931Z,7.34
2022-11-27T02:21:01.944Z,7.33
2022-11-27T02:22:01.906Z,7.32
2022-11-27T02:23:01.914Z,7.30
2022-11-27T02:24:01.890Z,7.29
2022-11-27T02:25:01.886Z,7.27
2022-11-27T02:26:01.866Z,7.27
2022-11-27T02:27:01.868Z,7.27
2022-11-27T02:28:01.835Z,7.29
2022-11-27T02:29:01.851Z,7.30
2022-11-27T02:30:01.806Z,7.29
2022-11-27T02:31:01.857Z,7.27
2022-11-27T02:32:01.789Z,7.27
2022-11-27T02:33:01.775Z,7.27
2022-11-27T02:34:01.761Z,7.26
2022-11-27T02:35:01.757Z,7.27
2022-11-27T02:36:01.733Z,7.26
2022-11-27T02:37:01.735Z,7.24
2022-11-27T02:38:01.723Z,7.24
2022-11-27T02:39:01.702Z,7.24
2022-11-27T02:40:01.683Z,7.26
2022-11-27T02:41:01.684Z,7.26
2022-11-27T02:42:01.671Z,7.27
2022-11-27T02:43:01.650Z,7.26
2022-11-27T02:44:01.634Z,7.26
2022-11-27T02:45:01.651Z,7.23
2022-11-27T02:46:01.650Z,7.19
2022-11-27T02:47:01.594Z,7.18
2022-11-27T02:48:01.594Z,7.15
2022-11-27T02:49:01.590Z,7.14
2022-11-27T02:50:01.564Z,7.14
2022-11-27T02:51:01.546Z,7.12
2022-11-27T02:52:01.533Z,7.11
2022-11-27T02:53:01.521Z,7.07
2022-11-27T02:54:01.515Z,7.07
2022-11-27T02:55:01.488Z,7.07
2022-11-27T02:56:01.460Z,7.05
2022-11-27T02:57:01.489Z,7.04
2022-11-27T02:58:01.458Z,7.04
2022-11-27T02:59:01.448Z,7.01
2022-11-27T03:00:01.433Z,7.00
2022-11-27T03:01:01.424Z,6.99
2022-11-27T03:02:01.473Z,6.99
2022-11-27T03:03:01.649Z,6.99
2022-11-27T03:04:01.401Z,6.97
2022-11-27T03:05:01.364Z,6.94
2022-11-27T03:06:02.034Z,6.93
2022-11-27T03:07:01.337Z,6.91
2022-11-27T03:08:01.577Z,6.90
2022-11-27T03:09:01.398Z,6.90
2022-11-27T03:10:02.083Z,6.89
2022-11-27T03:11:01.386Z,6.87
2022-11-27T03:12:01.276Z,6.86
2022-11-27T03:13:01.349Z,6.83
2022-11-27T03:14:01.275Z,6.82
2022-11-27T03:15:01.285Z,6.82
2022-11-27T03:16:01.331Z,6.83
2022-11-27T03:17:01.244Z,6.82
2022-11-27T03:18:01.923Z,6.82
2022-11-27T03:19:02.069Z,6.79
2022-11-27T03:20:01.284Z,6.79
2022-11-27T03:21:01.184Z,6.78
2022-11-27T03:22:01.159Z,6.78
2022-11-27T03:23:01.187Z,6.79
2022-11-27T03:24:01.115Z,6.76
2022-11-27T03:25:01.254Z,6.79
2022-11-27T03:26:01.289Z,6.79
2022-11-27T03:27:01.105Z,6.83
2022-11-27T03:28:01.131Z,6.86
2022-11-27T03:29:01.090Z,6.79
2022-11-27T03:30:01.042Z,6.79
2022-11-27T03:31:01.086Z,6.76
2022-11-27T03:32:01.009Z,6.73
2022-11-27T03:33:01.011Z,6.76
2022-11-27T03:34:00.991Z,6.78
2022-11-27T03:35:00.988Z,6.76
2022-11-27T03:36:00.967Z,6.76
2022-11-27T03:37:00.965Z,6.76
2022-11-27T03:38:00.941Z,6.79
2022-11-27T03:39:00.919Z,6.78
2022-11-27T03:40:00.911Z,6.81
2022-11-27T03:41:00.911Z,6.81
2022-11-27T03:42:00.908Z,6.83
2022-11-27T03:43:00.890Z,6.82
2022-11-27T03:44:00.850Z,6.81
2022-11-27T03:45:00.838Z,6.79
2022-11-27T03:46:01.559Z,6.76
2022-11-27T03:47:00.853Z,6.73
2022-11-27T03:48:00.921Z,6.71
2022-11-27T03:49:00.830Z,6.65
2022-11-27T03:50:00.817Z,6.65
2022-11-27T03:51:00.754Z,6.64
2022-11-27T03:52:00.749Z,6.64
2022-11-27T03:53:00.827Z,6.63
2022-11-27T03:54:00.769Z,6.60
2022-11-27T03:55:00.701Z,6.60
2022-11-27T03:56:04.233Z,6.60
2022-11-27T03:57:01.680Z,6.57
2022-11-27T03:58:00.697Z,6.53
2022-11-27T03:59:00.659Z,6.51
2022-11-27T04:00:00.777Z,6.51
2022-11-27T04:01:00.632Z,6.53
2022-11-27T04:02:00.642Z,6.53
2022-11-27T04:03:00.616Z,6.50
2022-11-27T04:04:00.651Z,6.46
2022-11-27T04:05:00.576Z,6.46
2022-11-27T04:06:00.573Z,6.46
2022-11-27T04:07:00.561Z,6.42
2022-11-27T04:08:00.551Z,6.40
2022-11-27T04:09:00.519Z,6.42
2022-11-27T04:10:00.533Z,6.40
2022-11-27T04:11:00.508Z,6.40
2022-11-27T04:12:00.532Z,6.39
2022-11-27T04:13:00.491Z,6.38
2022-11-27T04:14:00.664Z,6.36
2022-11-27T04:15:00.450Z,6.33
2022-11-27T04:16:00.469Z,6.32
2022-11-27T04:17:00.422Z,6.28
2022-11-27T04:18:00.470Z,6.30
2022-11-27T04:19:00.382Z,6.27
2022-11-27T04:20:00.392Z,6.25
2022-11-27T04:21:00.439Z,6.27
2022-11-27T04:22:00.377Z,6.20
2022-11-27T04:23:00.364Z,6.19
2022-11-27T04:24:00.349Z,6.20
2022-11-27T04:25:00.369Z,6.17
2022-11-27T04:26:00.318Z,6.14
2022-11-27T04:27:00.299Z,6.13
2022-11-27T04:28:00.319Z,6.14
2022-11-27T04:29:00.276Z,6.13
2022-11-27T04:30:00.273Z,6.10
2022-11-27T04:31:00.310Z,6.08
2022-11-27T04:32:00.249Z,6.06
2022-11-27T04:33:00.228Z,6.06
2022-11-27T04:34:00.226Z,6.03
2022-11-27T04:35:00.198Z,6.02
2022-11-27T04:36:00.225Z,5.99
2022-11-27T04:37:00.175Z,5.93
2022-11-27T04:38:00.207Z,5.88
2022-11-27T04:39:00.155Z,5.87
2022-11-27T04:40:00.176Z,5.85
2022-11-27T04:41:00.124Z,5.84
2022-11-27T04:42:00.125Z,5.84
2022-11-27T04:43:00.098Z,5.81
2022-11-27T04:44:00.103Z,5.80
2022-11-27T04:45:00.097Z,5.80
2022-11-27T04:46:00.079Z,5.78
2022-11-27T04:47:00.113Z,5.73
2022-11-27T04:48:00.059Z,5.67
2022-11-27T04:49:00.033Z,5.65
2022-11-27T04:50:00.033Z,5.63
2022-11-27T04:51:00.003Z,5.65
2022-11-27T04:51:59.995Z,5.65
2022-11-27T04:52:59.978Z,5.62
2022-11-27T04:53:59.980Z,5.56
2022-11-27T04:55:00.566Z,5.52
2022-11-27T04:55:59.992Z,5.49
2022-11-27T04:56:59.925Z,5.45
2022-11-27T04:57:59.988Z,5.44
2022-11-27T04:58:59.913Z,5.41
2022-11-27T04:59:59.902Z,5.40
2022-11-27T05:00:59.919Z,5.42
2022-11-27T05:01:59.882Z,5.42
2022-11-27T05:03:00.084Z,5.44
2022-11-27T05:03:59.868Z,5.42
2022-11-27T05:04:59.829Z,5.45
2022-11-27T05:05:59.823Z,5.47
2022-11-27T05:06:59.798Z,5.47
2022-11-27T05:08:00.024Z,5.45
2022-11-27T05:08:59.786Z,5.44
2022-11-27T05:09:59.827Z,5.44
2022-11-27T05:10:59.768Z,5.44
2022-11-27T05:11:59.737Z,5.42
2022-11-27T05:12:59.733Z,5.44
2022-11-27T05:13:59.727Z,5.41
2022-11-27T05:15:04.247Z,5.37
2022-11-27T05:15:59.810Z,5.32
2022-11-27T05:16:59.684Z,5.32
2022-11-27T05:17:59.761Z,5.30
2022-11-27T05:18:59.665Z,5.29
2022-11-27T05:19:59.660Z,5.26
2022-11-27T05:20:59.616Z,5.27
2022-11-27T05:21:59.614Z,5.24
2022-11-27T05:22:59.631Z,5.24
2022-11-27T05:23:59.602Z,5.23
2022-11-27T05:24:59.582Z,5.22
2022-11-27T05:25:59.573Z,5.22
2022-11-27T05:26:59.556Z,5.22
2022-11-27T05:27:59.620Z,5.19
2022-11-27T05:28:59.521Z,5.22
2022-11-27T05:29:59.515Z,5.20
2022-11-27T05:30:59.555Z,5.17
2022-11-27T05:31:59.492Z,5.17
2022-11-27T05:32:59.732Z,5.17
2022-11-27T05:33:59.461Z,5.19
2022-11-27T05:34:59.441Z,5.17
2022-11-27T05:36:00.316Z,5.15
2022-11-27T05:36:59.414Z,5.11
2022-11-27T05:37:59.468Z,5.11
2022-11-27T05:38:59.434Z,5.08
2022-11-27T05:39:59.387Z,5.06
2022-11-27T05:40:59.367Z,5.05
2022-11-27T05:41:59.358Z,5.01
2022-11-27T05:42:59.395Z,5.02
2022-11-27T05:43:59.346Z,5.01
2022-11-27T05:44:59.319Z,4.97
2022-11-27T05:45:59.308Z,4.94
2022-11-27T05:46:59.322Z,4.93
2022-11-27T05:47:59.278Z,4.94
2022-11-27T05:48:59.258Z,4.96
2022-11-27T05:49:59.260Z,4.93
2022-11-27T05:50:59.237Z,4.90
2022-11-27T05:51:59.236Z,4.90
2022-11-27T05:52:59.247Z,4.88
2022-11-27T05:53:59.215Z,4.87
2022-11-27T05:54:59.190Z,4.86
2022-11-27T05:55:59.174Z,4.86
2022-11-27T05:56:59.174Z,4.83
2022-11-27T05:57:59.152Z,4.83
2022-11-27T05:58:59.153Z,4.84
2022-11-27T05:59:59.133Z,4.84
2022-11-27T06:00:59.107Z,4.83
2022-11-27T06:01:59.154Z,4.84
2022-11-27T06:02:59.304Z,4.84
2022-11-27T06:03:59.092Z,4.83
2022-11-27T06:04:59.067Z,4.83
2022-11-27T06:05:59.044Z,4.80
2022-11-27T06:06:59.036Z,4.75
2022-11-27T06:07:59.105Z,4.71
2022-11-27T06:08:59.072Z,4.71
2022-11-27T06:09:59.001Z,4.69
2022-11-27T06:10:58.979Z,4.67
2022-11-27T06:11:58.981Z,4.68
2022-11-27T06:12:58.952Z,4.65
2022-11-27T06:13:58.952Z,4.65
2022-11-27T06:14:58.932Z,4.61
2022-11-27T06:15:58.970Z,4.57
2022-11-27T06:16:58.897Z,4.59
2022-11-27T06:17:58.908Z,4.62
2022-11-27T06:18:58.891Z,4.59
2022-11-27T06:19:58.880Z,4.56
2022-11-27T06:20:58.847Z,4.53
2022-11-27T06:21:59.580Z,4.54
2022-11-27T06:22:58.831Z,4.51
2022-11-27T06:23:58.841Z,4.50
2022-11-27T06:24:58.809Z,4.49
2022-11-27T06:25:58.797Z,4.49
2022-11-27T06:26:58.783Z,4.49
2022-11-27T06:27:58.768Z,4.46
2022-11-27T06:28:58.777Z,4.44
2022-11-27T06:29:58.779Z,4.43
2022-11-27T06:30:58.738Z,4.42
2022-11-27T06:31:58.802Z,4.38
2022-11-27T06:32:58.700Z,4.36
2022-11-27T06:33:58.705Z,4.34
2022-11-27T06:34:58.690Z,4.35
2022-11-27T06:35:58.674Z,4.35
2022-11-27T06:36:58.661Z,4.36
2022-11-27T06:37:58.646Z,4.36
2022-11-27T06:38:58.634Z,4.34
2022-11-27T06:39:58.622Z,4.32
2022-11-27T06:40:58.595Z,4.29
2022-11-27T06:41:58.665Z,4.29
2022-11-27T06:42:58.580Z,4.29
2022-11-27T06:43:58.602Z,4.29
2022-11-27T06:44:58.553Z,4.31
2022-11-27T06:45:58.593Z,4.32
2022-11-27T06:46:58.533Z,4.31
2022-11-27T06:47:58.515Z,4.32
2022-11-27T06:48:58.521Z,4.35
2022-11-27T06:49:58.483Z,4.38
2022-11-27T06:50:58.471Z,4.42
2022-11-27T06:51:58.473Z,4.38
2022-11-27T06:52:58.440Z,4.43
2022-11-27T06:53:58.452Z,4.51
2022-11-27T06:54:58.420Z,4.62
2022-11-27T06:55:58.411Z,4.61
2022-11-27T06:56:58.401Z,4.61
2022-11-27T06:57:58.386Z,4.65
2022-11-27T06:58:58.390Z,4.69
2022-11-27T06:59:58.432Z,4.68
2022-11-27T07:00:58.425Z,4.67
2022-11-27T07:01:58.402Z,4.64
2022-11-27T07:02:58.327Z,4.65
2022-11-27T07:03:58.326Z,4.61
2022-11-27T07:04:58.287Z,4.56
2022-11-27T07:05:58.295Z,4.53
2022-11-27T07:06:58.268Z,4.51
2022-11-27T07:07:58.339Z,4.46
2022-11-27T07:08:58.245Z,4.44
2022-11-27T07:09:59.436Z,4.43
2022-11-27T07:10:58.229Z,4.42
2022-11-27T07:11:58.228Z,4.38
2022-11-27T07:12:59.195Z,4.35
2022-11-27T07:13:58.195Z,4.36
2022-11-27T07:15:01.663Z,4.38
2022-11-27T07:15:59.703Z,4.42
2022-11-27T07:16:58.198Z,4.43
2022-11-27T07:17:59.217Z,4.43
2022-11-27T07:18:58.144Z,4.43
2022-11-27T07:19:58.114Z,4.43
2022-11-27T07:20:58.153Z,4.43
2022-11-27T07:21:58.112Z,4.42
2022-11-27T07:22:58.088Z,4.39
2022-11-27T07:23:58.085Z,4.65
2022-11-27T07:24:58.221Z,4.69
2022-11-27T07:25:58.035Z,4.91
2022-11-27T07:26:58.012Z,5.06
2022-11-27T07:27:58.012Z,4.97
2022-11-27T07:28:57.994Z,4.97
2022-11-27T07:29:58.000Z,4.94
2022-11-27T07:30:57.963Z,4.94
2022-11-27T07:31:57.996Z,4.87
2022-11-27T07:32:57.948Z,4.77
2022-11-27T07:33:57.959Z,4.72
2022-11-27T07:34:57.910Z,4.65
2022-11-27T07:35:57.959Z,4.62
2022-11-27T07:36:58.071Z,4.59
2022-11-27T07:37:57.919Z,4.56
2022-11-27T07:38:57.913Z,4.53
2022-11-27T07:40:03.076Z,4.51
2022-11-27T07:40:58.903Z,4.54
2022-11-27T07:42:00.081Z,4.53
2022-11-27T07:42:58.864Z,4.49
2022-11-27T07:43:57.857Z,4.50
2022-11-27T07:44:57.787Z,4.47
2022-11-27T07:45:57.805Z,4.49
2022-11-27T07:46:57.787Z,4.47
2022-11-27T07:47:57.765Z,4.47
2022-11-27T07:48:57.801Z,4.47
2022-11-27T07:49:57.744Z,4.49
2022-11-27T07:50:57.766Z,4.51
2022-11-27T07:51:57.713Z,4.54
2022-11-27T07:52:57.685Z,4.51
2022-11-27T07:53:57.674Z,4.46
2022-11-27T07:54:57.664Z,4.42
2022-11-27T07:55:57.657Z,4.42
2022-11-27T07:56:57.750Z,4.39
2022-11-27T07:57:57.709Z,4.44
2022-11-27T07:58:57.623Z,4.46
2022-11-27T07:59:57.614Z,4.46
2022-11-27T08:00:57.628Z,4.46
2022-11-27T08:01:57.576Z,4.44
2022-11-27T08:02:57.748Z,4.44
2022-11-27T08:03:57.543Z,4.44
2022-11-27T08:04:57.609Z,4.47
2022-11-27T08:05:57.522Z,4.47
2022-11-27T08:06:57.517Z,4.49
2022-11-27T08:07:57.627Z,4.50
2022-11-27T08:08:57.499Z,4.53
2022-11-27T08:09:57.471Z,4.53
2022-11-27T08:10:57.538Z,4.57
2022-11-27T08:11:57.472Z,4.56
2022-11-27T08:12:57.738Z,4.65
2022-11-27T08:13:57.479Z,4.71
2022-11-27T08:14:57.418Z,4.77
2022-11-27T08:15:57.705Z,4.77
2022-11-27T08:16:57.524Z,4.68
2022-11-27T08:17:57.465Z,4.65
2022-11-27T08:18:57.422Z,4.62
2022-11-27T08:19:57.447Z,4.64
2022-11-27T08:20:58.308Z,4.69
2022-11-27T08:21:57.388Z,4.99
2022-11-27T08:23:02.490Z,5.49
2022-11-27T08:23:58.301Z,5.55
2022-11-27T08:24:57.407Z,5.48
2022-11-27T08:25:57.391Z,5.60
2022-11-27T08:26:57.387Z,5.69
2022-11-27T08:27:57.347Z,5.75
2022-11-27T08:28:57.298Z,5.90
2022-11-27T08:29:57.225Z,5.99
2022-11-27T08:30:57.215Z,6.01
2022-11-27T08:31:57.286Z,5.80
2022-11-27T08:32:57.199Z,5.55
2022-11-27T08:33:57.173Z,5.40
2022-11-27T08:34:57.165Z,5.26
2022-11-27T08:35:57.235Z,5.26
2022-11-27T08:36:57.136Z,5.24
2022-11-27T08:37:57.113Z,5.19
2022-11-27T08:38:57.103Z,5.12
2022-11-27T08:39:57.102Z,5.09
2022-11-27T08:40:57.104Z,5.12
2022-11-27T08:41:57.069Z,5.12
2022-11-27T08:42:57.072Z,5.09
2022-11-27T08:43:57.037Z,5.11
2022-11-27T08:44:57.050Z,5.12
2022-11-27T08:45:57.097Z,5.11
2022-11-27T08:46:56.997Z,5.08
2022-11-27T08:47:56.990Z,5.08
2022-11-27T08:48:57.001Z,5.05
2022-11-27T08:49:57.019Z,5.02
2022-11-27T08:50:56.968Z,5.01
2022-11-27T08:51:56.956Z,4.99
2022-11-27T08:52:57.622Z,4.99
2022-11-27T08:53:56.911Z,5.02
2022-11-27T08:54:58.003Z,5.06
2022-11-27T08:55:57.483Z,5.09
2022-11-27T08:56:56.899Z,5.09
2022-11-27T08:57:56.873Z,5.12
2022-11-27T08:58:56.846Z,5.12
2022-11-27T08:59:56.869Z,5.14
2022-11-27T09:00:56.904Z,5.19
2022-11-27T09:01:56.826Z,5.17
2022-11-27T09:02:56.826Z,5.17
2022-11-27T09:03:56.835Z,5.20
2022-11-27T09:04:56.815Z,5.20
2022-11-27T09:05:56.775Z,5.24
2022-11-27T09:06:58.784Z,5.27
2022-11-27T09:07:56.804Z,5.23
2022-11-27T09:08:56.742Z,5.22
2022-11-27T09:09:56.873Z,5.23
2022-11-27T09:10:56.705Z,5.24
2022-11-27T09:11:56.676Z,5.24
2022-11-27T09:12:56.686Z,5.23
2022-11-27T09:13:56.671Z,5.26
2022-11-27T09:14:56.660Z,5.27
2022-11-27T09:15:56.636Z,5.32
2022-11-27T09:16:56.701Z,5.33
2022-11-27T09:17:56.607Z,5.37
2022-11-27T09:18:56.601Z,5.41
2022-11-27T09:19:56.910Z,5.41
2022-11-27T09:20:56.580Z,5.40
2022-11-27T09:21:56.564Z,5.44
2022-11-27T09:22:56.579Z,5.47
2022-11-27T09:23:56.527Z,5.52
2022-11-27T09:24:56.533Z,5.56
2022-11-27T09:25:56.500Z,5.58
2022-11-27T09:26:56.499Z,5.60
2022-11-27T09:27:56.528Z,5.59
2022-11-27T09:28:56.475Z,5.60
2022-11-27T09:29:56.812Z,5.62
2022-11-27T09:30:56.464Z,5.63
2022-11-27T09:31:56.498Z,5.66
2022-11-27T09:32:56.427Z,5.73
2022-11-27T09:33:56.440Z,5.73
2022-11-27T09:34:56.462Z,5.77
2022-11-27T09:35:56.445Z,5.75
2022-11-27T09:36:56.378Z,5.74
2022-11-27T09:37:56.353Z,5.75
2022-11-27T09:38:56.547Z,5.81
2022-11-27T09:39:56.388Z,5.87
2022-11-27T09:41:01.785Z,5.93
2022-11-27T09:41:57.452Z,5.95
2022-11-27T09:42:56.303Z,5.95
2022-11-27T09:43:56.296Z,5.98
2022-11-27T09:44:57.746Z,6.01
2022-11-27T09:45:56.309Z,6.05
2022-11-27T09:46:56.257Z,6.05
2022-11-27T09:47:56.240Z,6.11
2022-11-27T09:48:56.231Z,6.11
2022-11-27T09:49:56.222Z,6.13
2022-11-27T09:50:56.239Z,6.14
2022-11-27T09:51:56.213Z,6.17
2022-11-27T09:52:56.204Z,6.20
2022-11-27T09:53:57.044Z,6.19
2022-11-27T09:54:56.179Z,6.17
2022-11-27T09:55:56.243Z,6.17
2022-11-27T09:56:56.145Z,6.30
2022-11-27T09:57:56.114Z,6.45
2022-11-27T09:58:56.132Z,6.53
2022-11-27T09:59:56.100Z,6.53
2022-11-27T10:00:56.081Z,6.48
2022-11-27T10:01:56.149Z,6.45
2022-11-27T10:02:56.205Z,6.42
2022-11-27T10:03:56.050Z,6.45
2022-11-27T10:05:13.292Z,6.43
2022-11-27T10:05:57.010Z,6.45
2022-11-27T10:06:56.009Z,6.46
2022-11-27T10:07:55.995Z,6.45
2022-11-27T10:08:55.978Z,6.46
2022-11-27T10:09:56.045Z,6.45
2022-11-27T10:10:55.969Z,6.43
2022-11-27T10:11:55.931Z,6.43
2022-11-27T10:12:55.996Z,6.42
2022-11-27T10:13:56.159Z,6.43
2022-11-27T10:14:56.956Z,6.46
2022-11-27T10:15:55.905Z,6.53
2022-11-27T10:16:55.939Z,6.54
2022-11-27T10:17:55.854Z,6.58
2022-11-27T10:18:55.870Z,6.63
2022-11-27T10:19:55.846Z,6.65
2022-11-27T10:20:55.844Z,6.69
2022-11-27T10:21:55.806Z,6.69
2022-11-27T10:22:55.844Z,6.69
2022-11-27T10:23:55.798Z,6.72
2022-11-27T10:24:55.785Z,6.83
2022-11-27T10:25:55.748Z,6.93
2022-11-27T10:26:55.775Z,7.00
2022-11-27T10:27:55.723Z,7.09
2022-11-27T10:28:55.725Z,7.09
2022-11-27T10:29:55.719Z,7.18
2022-11-27T10:30:55.745Z,7.30
2022-11-27T10:31:55.701Z,7.41
2022-11-27T10:32:56.883Z,7.44
2022-11-27T10:33:55.649Z,7.42
2022-11-27T10:34:55.672Z,7.48
2022-11-27T10:35:56.585Z,7.50
2022-11-27T10:36:55.645Z,7.50
2022-11-27T10:37:55.651Z,7.47
2022-11-27T10:38:55.590Z,7.36
2022-11-27T10:39:55.632Z,7.33
2022-11-27T10:40:55.576Z,7.29
2022-11-27T10:41:55.532Z,7.26
2022-11-27T10:42:55.546Z,7.29
2022-11-27T10:43:55.570Z,7.29
2022-11-27T10:44:55.510Z,7.26
2022-11-27T10:45:55.589Z,7.26
2022-11-27T10:46:55.529Z,7.27
2022-11-27T10:47:55.482Z,7.27
2022-11-27T10:48:55.481Z,7.30
2022-11-27T10:49:55.451Z,7.30
2022-11-27T10:50:55.428Z,7.30
2022-11-27T10:51:55.428Z,7.30
2022-11-27T10:52:55.419Z,7.30
2022-11-27T10:53:55.401Z,7.27
2022-11-27T10:54:55.398Z,7.29
2022-11-27T10:55:55.376Z,7.30
2022-11-27T10:56:55.378Z,7.34
2022-11-27T10:57:55.379Z,7.34
2022-11-27T10:58:55.357Z,7.37
2022-11-27T10:59:55.336Z,7.39
2022-11-27T11:00:55.342Z,7.41
2022-11-27T11:02:02.386Z,7.42
2022-11-27T11:02:55.341Z,7.37
2022-11-27T11:03:55.269Z,7.36
2022-11-27T11:05:24.110Z,7.36
2022-11-27T11:06:56.253Z,7.41
2022-11-27T11:07:55.328Z,7.42
2022-11-27T11:09:00.108Z,7.47
2022-11-27T11:09:56.337Z,7.47
2022-11-27T11:10:55.180Z,7.50
2022-11-27T11:11:55.181Z,7.54
2022-11-27T11:12:55.181Z,7.57
2022-11-27T11:13:55.122Z,7.62
2022-11-27T11:14:56.072Z,7.58
2022-11-27T11:15:55.150Z,7.58
2022-11-27T11:16:55.189Z,7.57
2022-11-27T11:17:55.071Z,7.50
2022-11-27T11:18:55.082Z,7.44
2022-11-27T11:19:55.067Z,7.39
2022-11-27T11:20:55.054Z,7.37
2022-11-27T11:21:55.021Z,7.34
2022-11-27T11:22:55.022Z,7.33
2022-11-27T11:23:55.031Z,7.33
2022-11-27T11:24:54.980Z,7.32
2022-11-27T11:25:55.008Z,7.33
2022-11-27T11:26:54.979Z,7.39
2022-11-27T11:27:54.989Z,7.45
2022-11-27T11:28:54.940Z,7.51
2022-11-27T11:29:54.960Z,7.57
2022-11-27T11:30:54.900Z,7.62
2022-11-27T11:31:55.029Z,7.66
2022-11-27T11:32:54.901Z,7.69
2022-11-27T11:33:55.000Z,7.71
2022-11-27T11:35:00.341Z,7.73
2022-11-27T11:35:55.877Z,7.79
2022-11-27T11:36:54.821Z,7.81
2022-11-27T11:37:54.822Z,7.82
2022-11-27T11:38:54.819Z,7.86
2022-11-27T11:39:54.801Z,7.88
2022-11-27T11:40:54.765Z,7.85
2022-11-27T11:41:54.758Z,7.85
2022-11-27T11:42:54.760Z,7.85
2022-11-27T11:43:54.736Z,7.88
2022-11-27T11:44:54.715Z,7.91
2022-11-27T11:45:54.780Z,7.91
2022-11-27T11:46:54.694Z,7.89
2022-11-27T11:47:54.682Z,7.89
2022-11-27T11:48:54.664Z,7.85
2022-11-27T11:49:54.652Z,7.85
2022-11-27T11:50:54.637Z,7.84
2022-11-27T11:51:54.617Z,7.88
2022-11-27T11:52:54.834Z,7.88
2022-11-27T11:53:54.593Z,7.89
2022-11-27T11:54:54.584Z,7.88
2022-11-27T11:55:54.565Z,7.88
2022-11-27T11:56:54.572Z,7.88
2022-11-27T11:57:54.537Z,7.89
2022-11-27T11:58:54.539Z,7.92
2022-11-27T11:59:54.519Z,7.95
2022-11-27T12:01:55.538Z,7.99
2022-11-27T12:02:54.567Z,8.00
2022-11-27T12:03:54.607Z,7.99
2022-11-27T12:04:54.600Z,7.96
2022-11-27T12:05:54.498Z,7.95
2022-11-27T12:06:54.455Z,7.99
2022-11-27T12:07:54.514Z,8.02
2022-11-27T12:08:54.474Z,8.02
2022-11-27T12:09:54.405Z,8.03
2022-11-27T12:10:54.436Z,8.04
2022-11-27T12:11:54.364Z,8.02
2022-11-27T12:12:54.356Z,8.02
2022-11-27T12:13:54.329Z,8.02
2022-11-27T12:14:54.318Z,8.00
2022-11-27T12:15:54.587Z,7.99
2022-11-27T12:16:54.362Z,7.92
2022-11-27T12:17:54.283Z,7.89
2022-11-27T12:18:54.255Z,7.85
2022-11-27T12:19:54.267Z,7.84
2022-11-27T12:20:54.231Z,7.79
2022-11-27T12:21:54.216Z,7.77
2022-11-27T12:22:54.209Z,7.74
2022-11-27T12:23:54.253Z,7.74
2022-11-27T12:24:54.204Z,7.73
2022-11-27T12:25:54.164Z,7.73
2022-11-27T12:26:54.153Z,7.71
2022-11-27T12:27:55.082Z,7.69
2022-11-27T12:28:58.952Z,7.67
2022-11-27T12:29:55.546Z,7.63
2022-11-27T12:30:55.230Z,7.62
2022-11-27T12:31:54.589Z,7.60
2022-11-27T12:32:54.065Z,7.60
2022-11-27T12:33:54.093Z,7.62
2022-11-27T12:34:54.534Z,7.62
2022-11-27T12:35:54.059Z,7.66
2022-11-27T12:36:55.973Z,7.66
2022-11-27T12:37:54.384Z,7.66
2022-11-27T12:38:54.002Z,7.66
2022-11-27T12:39:54.396Z,7.63
2022-11-27T12:41:49.381Z,7.67
2022-11-27T12:42:49.375Z,7.66
2022-11-27T12:43:49.352Z,7.63
2022-11-27T12:44:49.359Z,7.66
2022-11-27T12:45:49.350Z,7.67
2022-11-27T12:46:49.316Z,7.69
2022-11-27T12:47:49.334Z,7.70
2022-11-27T12:48:49.297Z,7.71
2022-11-27T12:49:49.300Z,7.71
2022-11-27T12:50:49.276Z,7.73
2022-11-27T12:51:49.258Z,7.76
2022-11-27T12:52:49.246Z,7.77
2022-11-27T12:53:49.236Z,7.79
2022-11-27T12:54:49.223Z,7.79
2022-11-27T12:55:49.193Z,7.79
2022-11-27T12:56:49.196Z,7.79
2022-11-27T12:57:49.175Z,7.81
2022-11-27T12:58:49.174Z,7.79
2022-11-27T12:59:49.156Z,7.77
2022-11-27T13:00:49.171Z,7.76
2022-11-27T13:01:49.235Z,7.77
2022-11-27T13:02:49.704Z,7.77
2022-11-27T13:03:49.132Z,7.77
2022-11-27T13:04:49.113Z,7.76
2022-11-27T13:05:49.084Z,7.74
2022-11-27T13:06:49.074Z,7.76
2022-11-27T13:07:49.097Z,7.77
2022-11-27T13:08:52.403Z,7.79
2022-11-27T13:09:49.019Z,7.77
2022-11-27T13:10:49.028Z,7.77
2022-11-27T13:11:48.993Z,7.77
2022-11-27T13:12:48.992Z,7.79
2022-11-27T13:13:49.048Z,7.79
2022-11-27T13:14:52.657Z,7.77
2022-11-27T13:15:48.939Z,7.77
2022-11-27T13:16:48.996Z,7.77
2022-11-27T13:17:48.917Z,7.74
2022-11-27T13:18:48.922Z,7.73
2022-11-27T13:19:48.898Z,7.73
2022-11-27T13:20:52.300Z,7.71